Time;durP1;ratioP1;P1;durP2;ratioP2;P2;SDS_P1;SDS_P2;PMS_P1;PMS_P2;Temp;Humidity;BMP_temperature;BMP_pressure;BME280_temperature;BME280_humidity;BME280_pressure;Samples;Min_cycle;Max_cycle;Signal;HPM_P1;HPM_P2
2022/10/29 00:00:13;;;;;;;9.65;3.20;;;;;;;;;;5052279;28;20088;-89
2022/10/29 00:02:40;;;;;;;6.85;2.60;;;;;;;;;;5052037;28;20513;-88
2022/10/29 00:05:08;;;;;;;9.13;2.67;;;;;;;;;;5065913;28;20056;-89
2022/10/29 00:07:35;;;;;;;7.40;3.17;;;;;;;;;;5071797;28;20059;-87
2022/10/29 00:10:06;;;;;;;11.20;3.05;;;;;;;;;;5072076;28;20093;-88
2022/10/29 00:12:35;;;;;;;8.27;2.90;;;;;;;;;;5062273;28;20052;-88
2022/10/29 00:15:03;;;;;;;8.02;2.92;;;;;;;;;;5051933;28;20057;-89
2022/10/29 00:17:30;;;;;;;12.35;2.88;;;;;;;;;;5060994;28;20455;-88
2022/10/29 00:19:58;;;;;;;13.52;2.60;;;;;;;;;;5071904;28;20052;-88
2022/10/29 00:22:25;;;;;;;9.85;3.15;;;;;;;;;;5071773;28;20045;-88
2022/10/29 00:24:52;;;;;;;11.90;3.95;;;;;;;;;;5071881;28;20046;-88
2022/10/29 00:27:19;;;;;;;11.27;3.28;;;;;;;;;;5071719;28;20052;-88
2022/10/29 00:29:46;;;;;;;7.05;3.22;;;;;;;;;;5071844;28;20045;-88
2022/10/29 00:32:14;;;;;;;14.13;3.67;;;;;;;;;;5071987;28;20049;-88
2022/10/29 00:34:44;;;;;;;10.82;3.58;;;;;;;;;;5085834;28;20052;-88
2022/10/29 00:37:11;;;;;;;14.35;3.55;;;;;;;;;;5068798;28;20060;-88
2022/10/29 00:39:38;;;;;;;8.73;3.67;;;;;;;;;;5051591;28;20416;-88
2022/10/29 00:42:06;;;;;;;4.78;3.22;;;;;;;;;;5053214;28;20071;-88
2022/10/29 00:44:34;;;;;;;7.05;2.88;;;;;;;;;;5054850;28;20512;-88
2022/10/29 00:47:04;;;;;;;7.32;3.42;;;;;;;;;;5059064;28;20045;-88
2022/10/29 00:49:33;;;;;;;11.18;3.55;;;;;;;;;;5076081;28;20066;-88
2022/10/29 00:52:01;;;;;;;16.27;3.42;;;;;;;;;;5074816;28;20063;-88
2022/10/29 00:54:29;;;;;;;7.57;3.65;;;;;;;;;;5074955;28;20052;-88
2022/10/29 00:57:03;;;;;;;11.93;3.35;;;;;;;;;;5072751;28;20049;-88
2022/10/29 00:59:31;;;;;;;17.52;3.97;;;;;;;;;;5054892;28;20048;-89
2022/10/29 01:01:58;;;;;;;7.95;3.50;;;;;;;;;;5054891;28;20053;-88
2022/10/29 01:04:25;;;;;;;9.75;3.72;;;;;;;;;;5062792;28;20084;-88
2022/10/29 01:06:52;;;;;;;10.55;3.45;;;;;;;;;;5073692;28;20051;-89
2022/10/29 01:09:20;;;;;;;9.43;3.60;;;;;;;;;;5054596;28;20079;-88
2022/10/29 01:11:47;;;;;;;9.65;4.57;;;;;;;;;;5057786;28;20053;-88
2022/10/29 01:14:32;;;;;;;9.85;3.67;;;;;;;;;;5054645;28;20060;-88
2022/10/29 01:17:09;;;;;;;13.10;3.95;;;;;;;;;;5055932;28;20052;-89
2022/10/29 01:19:39;;;;;;;12.02;3.85;;;;;;;;;;5074187;28;20052;-89
2022/10/29 01:22:06;;;;;;;17.10;4.32;;;;;;;;;;5074096;28;20056;-88
2022/10/29 01:24:46;;;;;;;14.15;4.18;;;;;;;;;;5074466;28;20071;-89
2022/10/29 01:27:28;;;;;;;13.60;4.35;;;;;;;;;;5074621;28;20052;-89
2022/10/29 01:29:55;;;;;;;12.00;3.72;;;;;;;;;;5074558;28;20058;-88
2022/10/29 01:32:35;;;;;;;15.13;3.70;;;;;;;;;;5074105;28;20040;-88
2022/10/29 01:35:22;;;;;;;9.05;3.33;;;;;;;;;;5074306;28;20056;-88
2022/10/29 01:38:07;;;;;;;15.95;3.92;;;;;;;;;;5073886;28;20052;-88
2022/10/29 01:40:45;;;;;;;14.90;3.88;;;;;;;;;;5074139;28;20413;-87
2022/10/29 01:43:18;;;;;;;14.07;3.75;;;;;;;;;;5069354;28;20059;-88
2022/10/29 01:45:45;;;;;;;;;;;;;;;;;;5074410;28;20488;-88
2022/10/29 01:48:19;;;;;;;10.57;3.92;;;;;;;;;;5064433;28;19927;-87
2022/10/29 01:50:46;;;;;;;;;;;;;;;;;;5063587;28;20049;-88
2022/10/29 01:53:13;;;;;;;12.23;3.25;;;;;;;;;;5056829;28;20262;-88
2022/10/29 01:55:40;;;;;;;10.13;4.40;;;;;;;;;;5053226;28;20045;-88
2022/10/29 01:58:09;;;;;;;6.97;3.40;;;;;;;;;;5062021;28;20052;-88
2022/10/29 02:00:42;;;;;;;6.30;3.58;;;;;;;;;;5073920;28;20047;-88
2022/10/29 02:03:16;;;;;;;6.25;3.45;;;;;;;;;;5065044;28;20060;-88
2022/10/29 02:06:11;;;;;;;7.53;3.95;;;;;;;;;;5072167;28;20053;-88
2022/10/29 02:08:53;;;;;;;7.32;3.58;;;;;;;;;;5061792;28;20052;-88
2022/10/29 02:11:20;;;;;;;7.45;3.70;;;;;;;;;;5053725;28;20044;-88
2022/10/29 02:14:05;;;;;;;12.50;4.20;;;;;;;;;;5066757;28;20055;-88
2022/10/29 02:16:33;;;;;;;6.03;3.35;;;;;;;;;;5073651;28;20056;-88
2022/10/29 02:19:00;;;;;;;15.73;4.38;;;;;;;;;;5073278;28;20059;-87
2022/10/29 02:21:27;;;;;;;9.73;4.38;;;;;;;;;;5073473;28;20507;-88
2022/10/29 02:23:55;;;;;;;10.45;4.28;;;;;;;;;;5072713;28;20496;-88
2022/10/29 02:26:22;;;;;;;5.47;3.65;;;;;;;;;;5073290;28;20048;-88
2022/10/29 02:28:50;;;;;;;10.05;4.13;;;;;;;;;;5060769;28;20049;-88
2022/10/29 02:31:17;;;;;;;10.43;4.20;;;;;;;;;;5053373;28;20132;-89
2022/10/29 02:33:44;;;;;;;9.30;3.95;;;;;;;;;;5053258;28;20071;-89
2022/10/29 02:36:11;;;;;;;7.43;4.50;;;;;;;;;;5053440;28;20064;-88
2022/10/29 02:38:38;;;;;;;12.30;4.95;;;;;;;;;;5052878;28;20056;-87
2022/10/29 02:41:06;;;;;;;11.18;4.38;;;;;;;;;;5053010;28;20053;-88
2022/10/29 02:43:33;;;;;;;6.15;4.28;;;;;;;;;;5062423;28;20051;-88
2022/10/29 02:46:18;;;;;;;7.85;4.07;;;;;;;;;;5073124;28;20059;-88
2022/10/29 02:48:46;;;;;;;10.27;4.75;;;;;;;;;;5061753;28;20105;-88
2022/10/29 02:51:13;;;;;;;14.00;4.18;;;;;;;;;;5052872;28;20048;-88
2022/10/29 02:53:41;;;;;;;8.35;4.22;;;;;;;;;;5062962;28;20472;-88
2022/10/29 02:56:08;;;;;;;5.85;3.78;;;;;;;;;;5073146;28;20055;-88
2022/10/29 02:58:36;;;;;;;11.10;4.32;;;;;;;;;;5072636;28;20053;-88
2022/10/29 03:01:03;;;;;;;11.02;4.20;;;;;;;;;;5072875;28;20404;-88
2022/10/29 03:03:31;;;;;;;6.45;3.83;;;;;;;;;;5071601;28;20512;-87
2022/10/29 03:05:58;;;;;;;8.38;3.83;;;;;;;;;;5053614;28;20063;-88
2022/10/29 03:08:26;;;;;;;11.15;3.90;;;;;;;;;;5065742;28;20052;-89
2022/10/29 03:10:54;;;;;;;9.07;4.22;;;;;;;;;;5055109;28;20045;-88
2022/10/29 03:13:21;;;;;;;12.25;4.35;;;;;;;;;;5061236;28;20124;-89
2022/10/29 03:15:48;;;;;;;10.65;4.03;;;;;;;;;;5052626;28;20465;-88
2022/10/29 03:18:16;;;;;;;4.68;3.92;;;;;;;;;;5057195;28;20114;-88
2022/10/29 03:20:44;;;;;;;10.50;4.40;;;;;;;;;;5072382;28;20044;-88
2022/10/29 03:23:11;;;;;;;8.40;4.32;;;;;;;;;;5067912;28;20091;-88
2022/10/29 03:25:38;;;;;;;14.25;4.28;;;;;;;;;;5052638;28;20044;-88
2022/10/29 03:28:06;;;;;;;11.20;4.70;;;;;;;;;;5055510;28;20049;-89
2022/10/29 03:30:33;;;;;;;15.65;5.30;;;;;;;;;;5072616;28;20062;-89
2022/10/29 03:33:00;;;;;;;7.68;5.30;;;;;;;;;;5072239;28;20432;-88
2022/10/29 03:35:27;;;;;;;7.28;4.82;;;;;;;;;;5072430;28;20404;-89
2022/10/29 03:37:54;;;;;;;16.10;5.45;;;;;;;;;;5069805;28;20098;-88
2022/10/29 03:40:22;;;;;;;14.05;4.88;;;;;;;;;;5052153;28;20162;-88
2022/10/29 03:42:49;;;;;;;7.90;4.20;;;;;;;;;;5062317;28;20052;-88
2022/10/29 03:45:16;;;;;;;12.77;5.63;;;;;;;;;;5052139;28;20080;-88
2022/10/29 03:47:43;;;;;;;12.65;4.07;;;;;;;;;;5052316;28;20061;-88
2022/10/29 03:50:10;;;;;;;7.70;4.32;;;;;;;;;;5071590;28;20060;-88
2022/10/29 03:52:38;;;;;;;7.68;4.05;;;;;;;;;;5072486;28;20114;-88
2022/10/29 03:55:05;;;;;;;8.77;4.40;;;;;;;;;;5053786;28;20053;-88
2022/10/29 03:57:33;;;;;;;12.75;5.15;;;;;;;;;;5052247;28;20046;-89
2022/10/29 04:00:00;;;;;;;9.98;4.65;;;;;;;;;;5068945;28;20063;-89
2022/10/29 04:02:27;;;;;;;9.80;5.03;;;;;;;;;;5071914;28;20432;-88
2022/10/29 04:04:55;;;;;;;9.30;5.45;;;;;;;;;;5067456;28;20044;-88
2022/10/29 04:07:22;;;;;;;16.10;7.40;;;;;;;;;;5071906;28;20409;-87
2022/10/29 04:09:49;;;;;;;14.45;8.10;;;;;;;;;;5071786;28;20053;-88
2022/10/29 04:12:16;;;;;;;13.77;8.85;;;;;;;;;;5071728;28;20052;-88
2022/10/29 04:14:44;;;;;;;18.50;10.38;;;;;;;;;;5071737;28;20423;-88
2022/10/29 04:17:12;;;;;;;22.00;11.73;;;;;;;;;;5072093;28;20131;-88
2022/10/29 04:19:39;;;;;;;17.95;10.77;;;;;;;;;;5075105;28;20057;-88
2022/10/29 04:22:07;;;;;;;19.65;11.02;;;;;;;;;;5075690;28;20488;-88
2022/10/29 04:24:54;;;;;;;16.95;10.40;;;;;;;;;;5073411;28;20053;-88
2022/10/29 04:27:41;;;;;;;24.35;8.85;;;;;;;;;;5057346;28;20515;-88
2022/10/29 04:30:29;;;;;;;14.43;5.50;;;;;;;;;;5075269;28;20048;-88
2022/10/29 04:32:57;;;;;;;10.93;5.25;;;;;;;;;;5075474;28;20052;-88
2022/10/29 04:35:26;;;;;;;18.67;4.97;;;;;;;;;;5075010;28;20051;-87
2022/10/29 04:37:56;;;;;;;10.82;4.95;;;;;;;;;;5075306;28;20049;-88
2022/10/29 04:40:24;;;;;;;12.95;5.40;;;;;;;;;;5074820;28;20049;-88
2022/10/29 04:42:51;;;;;;;9.48;6.00;;;;;;;;;;5065289;28;20053;-88
2022/10/29 04:45:18;;;;;;;8.90;5.47;;;;;;;;;;5072530;28;20052;-88
2022/10/29 04:47:46;;;;;;;13.07;5.68;;;;;;;;;;5075281;28;20068;-87
2022/10/29 04:50:13;;;;;;;14.38;5.60;;;;;;;;;;5074636;28;20044;-88
2022/10/29 04:52:40;;;;;;;12.63;6.18;;;;;;;;;;5075179;28;20106;-88
2022/10/29 04:55:08;;;;;;;9.65;5.15;;;;;;;;;;5074843;28;20048;-87
2022/10/29 04:57:35;;;;;;;17.98;6.53;;;;;;;;;;5075933;28;20449;-87
2022/10/29 05:00:03;;;;;;;11.40;5.72;;;;;;;;;;5074678;28;20053;-88
2022/10/29 05:02:30;;;;;;;9.68;5.38;;;;;;;;;;5075042;28;20052;-88
2022/10/29 05:04:57;;;;;;;21.55;6.45;;;;;;;;;;5073826;28;20056;-88
2022/10/29 05:07:24;;;;;;;12.23;6.28;;;;;;;;;;5074983;28;20052;-89
2022/10/29 05:09:52;;;;;;;7.15;5.32;;;;;;;;;;5062423;28;20053;-88
2022/10/29 05:12:19;;;;;;;15.80;6.50;;;;;;;;;;5059858;28;20041;-89
2022/10/29 05:14:46;;;;;;;11.60;5.55;;;;;;;;;;5074389;28;20051;-88
2022/10/29 05:17:13;;;;;;;13.57;6.40;;;;;;;;;;5074790;28;20045;-88
2022/10/29 05:19:40;;;;;;;15.95;6.20;;;;;;;;;;5064384;28;20045;-88
2022/10/29 05:22:08;;;;;;;14.75;6.03;;;;;;;;;;5056253;28;20060;-88
2022/10/29 05:24:35;;;;;;;12.68;5.53;;;;;;;;;;5067204;28;20512;-89
2022/10/29 05:27:04;;;;;;;16.95;6.20;;;;;;;;;;5075429;28;20052;-88
2022/10/29 05:29:31;;;;;;;15.25;6.88;;;;;;;;;;5064908;28;20049;-88
2022/10/29 05:31:59;;;;;;;13.55;6.13;;;;;;;;;;5054448;28;20052;-88
2022/10/29 05:34:26;;;;;;;18.50;5.80;;;;;;;;;;5054363;28;20056;-88
2022/10/29 05:36:53;;;;;;;20.10;7.82;;;;;;;;;;5054440;28;20060;-88
2022/10/29 05:39:20;;;;;;;19.58;8.30;;;;;;;;;;5054379;28;20049;-88
2022/10/29 05:41:48;;;;;;;15.93;5.85;;;;;;;;;;5070858;28;20056;-88
2022/10/29 05:44:15;;;;;;;11.35;5.97;;;;;;;;;;5077576;28;20049;-88
2022/10/29 05:46:42;;;;;;;15.63;6.85;;;;;;;;;;5074171;28;20049;-88
2022/10/29 05:49:11;;;;;;;20.98;6.70;;;;;;;;;;5069294;28;20492;-88
2022/10/29 05:51:38;;;;;;;19.15;6.18;;;;;;;;;;5053621;28;20045;-89
2022/10/29 05:54:05;;;;;;;15.60;6.35;;;;;;;;;;5054040;28;20045;-88
2022/10/29 05:56:33;;;;;;;12.27;5.25;;;;;;;;;;5058732;28;20048;-88
2022/10/29 05:59:00;;;;;;;10.40;5.47;;;;;;;;;;5056068;28;20049;-88
2022/10/29 06:01:27;;;;;;;21.80;6.72;;;;;;;;;;5073587;28;20048;-88
2022/10/29 06:03:54;;;;;;;32.67;8.25;;;;;;;;;;5070991;28;20867;-88
2022/10/29 06:06:22;;;;;;;21.27;8.27;;;;;;;;;;5073508;28;20063;-88
2022/10/29 06:08:49;;;;;;;20.13;8.88;;;;;;;;;;5073372;28;20051;-89
2022/10/29 06:11:16;;;;;;;23.65;9.18;;;;;;;;;;5073558;28;20427;-88
2022/10/29 06:13:43;;;;;;;37.20;7.57;;;;;;;;;;5073234;28;20048;-88
2022/10/29 06:16:10;;;;;;;17.80;8.63;;;;;;;;;;5054057;28;20405;-88
2022/10/29 06:18:38;;;;;;;17.98;7.82;;;;;;;;;;5053560;28;20071;-88
2022/10/29 06:21:05;;;;;;;27.92;10.75;;;;;;;;;;5053287;28;20056;-89
2022/10/29 06:23:32;;;;;;;26.13;12.80;;;;;;;;;;5053393;28;20110;-88
2022/10/29 06:26:00;;;;;;;18.27;9.27;;;;;;;;;;5053041;28;20489;-87
2022/10/29 06:28:27;;;;;;;23.20;11.05;;;;;;;;;;5053643;28;20578;-88
2022/10/29 06:31:00;;;;;;;21.05;9.70;;;;;;;;;;5070511;28;20056;-88
2022/10/29 06:33:28;;;;;;;16.85;8.85;;;;;;;;;;5073372;28;20558;-88
2022/10/29 06:35:58;;;;;;;22.70;11.32;;;;;;;;;;5056599;28;20424;-88
2022/10/29 06:38:26;;;;;;;18.33;9.60;;;;;;;;;;5053110;28;20053;-88
2022/10/29 06:40:53;;;;;;;17.77;9.57;;;;;;;;;;5052487;28;20069;-88
2022/10/29 06:43:20;;;;;;;24.98;9.32;;;;;;;;;;5066935;28;20055;-88
2022/10/29 06:45:49;;;;;;;30.70;11.98;;;;;;;;;;5057997;28;20455;-88
2022/10/29 06:48:16;;;;;;;22.52;8.63;;;;;;;;;;5052812;28;20061;-88
2022/10/29 06:50:48;;;;;;;23.05;9.85;;;;;;;;;;5052739;28;20076;-87
2022/10/29 06:53:16;;;;;;;28.77;10.18;;;;;;;;;;5052842;28;20473;-87
2022/10/29 06:55:43;;;;;;;20.38;10.35;;;;;;;;;;5066353;28;20058;-88
2022/10/29 06:58:12;;;;;;;16.73;10.20;;;;;;;;;;5086544;28;20116;-87
2022/10/29 07:00:39;;;;;;;22.23;10.95;;;;;;;;;;5061394;28;20049;-87
2022/10/29 07:03:07;;;;;;;19.58;10.32;;;;;;;;;;5052672;28;20040;-88
2022/10/29 07:05:35;;;;;;;16.67;8.98;;;;;;;;;;5058334;28;20065;-88
2022/10/29 07:08:02;;;;;;;21.23;11.73;;;;;;;;;;5052603;28;20045;-88
2022/10/29 07:10:32;;;;;;;23.13;12.80;;;;;;;;;;5064479;28;20408;-88
2022/10/29 07:13:00;;;;;;;27.25;15.77;;;;;;;;;;5073367;28;20051;-88
2022/10/29 07:15:27;;;;;;;33.65;12.55;;;;;;;;;;5072394;28;20059;-88
2022/10/29 07:18:01;;;;;;;21.23;9.82;;;;;;;;;;5072729;28;20060;-88
2022/10/29 07:20:29;;;;;;;19.73;8.82;;;;;;;;;;5062189;28;20493;-87
2022/10/29 07:22:57;;;;;;;24.77;10.15;;;;;;;;;;5052232;28;20041;-88
2022/10/29 07:25:24;;;;;;;13.80;9.45;;;;;;;;;;5061543;28;20063;-88
2022/10/29 07:27:51;;;;;;;25.33;8.88;;;;;;;;;;5072142;28;20381;-88
2022/10/29 07:30:19;;;;;;;18.38;6.78;;;;;;;;;;5071987;28;20076;-88
2022/10/29 07:32:46;;;;;;;13.07;5.63;;;;;;;;;;5072039;28;20124;-87
2022/10/29 07:35:14;;;;;;;13.18;5.57;;;;;;;;;;5071857;28;20063;-87
2022/10/29 07:37:44;;;;;;;19.38;5.75;;;;;;;;;;5072264;28;20135;-87
2022/10/29 07:40:11;;;;;;;8.98;4.80;;;;;;;;;;5065413;28;20136;-87
2022/10/29 07:42:41;;;;;;;16.08;4.82;;;;;;;;;;5059089;28;20127;-87
2022/10/29 07:45:09;;;;;;;24.50;6.35;;;;;;;;;;5071951;28;20072;-87
2022/10/29 07:47:36;;;;;;;10.23;4.47;;;;;;;;;;5071973;28;20477;-87
2022/10/29 07:50:04;;;;;;;14.57;4.47;;;;;;;;;;5067123;28;20052;-88
2022/10/29 07:52:31;;;;;;;10.23;3.88;;;;;;;;;;5052498;28;20435;-87
2022/10/29 07:55:01;;;;;;;10.90;3.85;;;;;;;;;;5060092;28;20079;-87
2022/10/29 07:57:28;;;;;;;15.35;4.75;;;;;;;;;;5076056;28;20083;-87
2022/10/29 07:59:55;;;;;;;10.40;4.30;;;;;;;;;;5071857;28;20053;-87
2022/10/29 08:02:25;;;;;;;20.27;8.82;;;;;;;;;;5056144;28;20065;-86
2022/10/29 08:04:52;;;;;;;14.00;4.82;;;;;;;;;;5067557;28;20067;-88
2022/10/29 08:07:19;;;;;;;12.50;4.97;;;;;;;;;;5075880;28;20062;-87
2022/10/29 08:09:47;;;;;;;34.35;14.55;;;;;;;;;;5075280;28;20048;-88
2022/10/29 08:12:14;;;;;;;24.10;13.65;;;;;;;;;;5072797;28;20049;-87
2022/10/29 08:14:41;;;;;;;12.70;6.50;;;;;;;;;;5068465;28;20051;-87
2022/10/29 08:17:08;;;;;;;10.85;5.28;;;;;;;;;;5077991;28;20052;-87
2022/10/29 08:19:35;;;;;;;33.50;19.27;;;;;;;;;;5075845;28;20044;-88
2022/10/29 08:22:03;;;;;;;53.38;39.35;;;;;;;;;;5055382;28;20122;-87
2022/10/29 08:24:30;;;;;;;38.95;24.00;;;;;;;;;;5055493;28;20049;-87
2022/10/29 08:26:57;;;;;;;19.52;12.00;;;;;;;;;;5055483;28;20517;-88
2022/10/29 08:29:24;;;;;;;21.20;5.95;;;;;;;;;;5055571;28;20230;-89
2022/10/29 08:31:51;;;;;;;15.70;6.60;;;;;;;;;;5073457;28;20055;-88
2022/10/29 08:34:19;;;;;;;13.25;4.53;;;;;;;;;;5075139;28;20047;-89
2022/10/29 08:36:46;;;;;;;19.42;5.07;;;;;;;;;;5058623;28;20056;-90
2022/10/29 08:39:13;;;;;;;21.20;4.80;;;;;;;;;;5055373;28;20508;-90
2022/10/29 08:41:48;;;;;;;16.88;5.28;;;;;;;;;;5055126;28;20059;-89
2022/10/29 08:44:24;;;;;;;19.90;5.40;;;;;;;;;;5055370;28;20076;-87
2022/10/29 08:47:07;;;;;;;13.65;5.03;;;;;;;;;;5055439;28;20044;-91
2022/10/29 08:49:55;;;;;;;21.13;5.85;;;;;;;;;;5055200;28;20621;-86
2022/10/29 08:52:24;;;;;;;23.08;11.82;;;;;;;;;;5048309;28;20044;-86
2022/10/29 08:54:59;;;;;;;15.68;10.85;;;;;;;;;;5055181;28;20075;-86
2022/10/29 08:57:28;;;;;;;30.13;5.88;;;;;;;;;;5055199;28;20056;-87
2022/10/29 09:00:03;;;;;;;23.05;5.93;;;;;;;;;;5054758;28;20053;-86
2022/10/29 09:02:30;;;;;;;19.35;8.27;;;;;;;;;;5054939;28;20072;-87
2022/10/29 09:04:58;;;;;;;24.48;8.88;;;;;;;;;;5054150;28;20055;-87
2022/10/29 09:07:38;;;;;;;30.83;6.63;;;;;;;;;;5055028;28;20057;-87
2022/10/29 09:10:12;;;;;;;14.40;4.43;;;;;;;;;;5054731;28;20056;-88
2022/10/29 09:12:58;;;;;;;18.88;4.68;;;;;;;;;;5060251;28;20053;-87
2022/10/29 09:15:26;;;;;;;24.27;4.85;;;;;;;;;;5074402;28;20062;-87
2022/10/29 09:18:05;;;;;;;12.55;4.78;;;;;;;;;;5075241;28;20059;-86
2022/10/29 09:20:32;;;;;;;18.17;5.18;;;;;;;;;;5076272;28;20056;-86
2022/10/29 09:23:14;;;;;;;22.13;5.22;;;;;;;;;;5074926;28;20052;-87
2022/10/29 09:26:00;;;;;;;17.92;4.97;;;;;;;;;;5074057;28;20059;-87
2022/10/29 09:28:43;;;;;;;20.83;4.45;;;;;;;;;;5074572;28;20064;-87
2022/10/29 09:31:18;;;;;;;13.90;3.85;;;;;;;;;;5075589;28;20151;-86
2022/10/29 09:33:48;;;;;;;30.92;4.75;;;;;;;;;;5060109;28;20049;-86
2022/10/29 09:36:17;;;;;;;12.73;3.70;;;;;;;;;;5054360;28;20136;-87
2022/10/29 09:38:58;;;;;;;20.08;5.68;;;;;;;;;;5052236;28;20425;-87
2022/10/29 09:41:26;;;;;;;9.57;4.28;;;;;;;;;;5064080;28;20063;-86
2022/10/29 09:44:03;;;;;;;11.15;3.78;;;;;;;;;;5058119;28;20140;-86
2022/10/29 09:46:44;;;;;;;9.70;2.92;;;;;;;;;;5054187;28;20057;-86
2022/10/29 09:49:15;;;;;;;11.77;3.58;;;;;;;;;;5054073;28;20057;-86
2022/10/29 09:51:42;;;;;;;15.40;4.97;;;;;;;;;;5054012;28;20538;-86
2022/10/29 09:54:09;;;;;;;21.20;5.80;;;;;;;;;;5053872;28;20053;-86
2022/10/29 09:56:39;;;;;;;21.63;4.60;;;;;;;;;;5064871;28;20052;-86
2022/10/29 09:59:11;;;;;;;9.73;3.47;;;;;;;;;;5073728;28;20493;-86
2022/10/29 10:01:39;;;;;;;12.55;5.32;;;;;;;;;;5073374;28;20056;-86
2022/10/29 10:04:13;;;;;;;29.17;8.05;;;;;;;;;;5067944;28;20044;-86
2022/10/29 10:07:01;;;;;;;16.48;4.65;;;;;;;;;;5064381;28;20059;-86
2022/10/29 10:09:28;;;;;;;9.60;3.15;;;;;;;;;;5073592;28;20045;-86
2022/10/29 10:11:58;;;;;;;14.00;5.00;;;;;;;;;;5073342;28;20053;-86
2022/10/29 10:14:26;;;;;;;14.68;4.50;;;;;;;;;;5053678;28;20052;-85
2022/10/29 10:17:00;;;;;;;15.32;5.35;;;;;;;;;;5066155;28;20049;-86
2022/10/29 10:19:31;;;;;;;18.88;4.45;;;;;;;;;;5073496;28;20079;-86
2022/10/29 10:22:00;;;;;;;8.65;2.90;;;;;;;;;;5072955;28;20049;-86
2022/10/29 10:24:37;;;;;;;10.60;2.97;;;;;;;;;;5073132;28;20470;-86
2022/10/29 10:27:23;;;;;;;12.48;3.00;;;;;;;;;;5072947;28;20059;-86
2022/10/29 10:30:03;;;;;;;8.52;3.15;;;;;;;;;;5073087;28;20511;-87
2022/10/29 10:32:30;;;;;;;13.32;3.25;;;;;;;;;;5072860;28;20060;-84
2022/10/29 10:34:57;;;;;;;8.68;2.92;;;;;;;;;;5073001;28;20067;-85
2022/10/29 10:37:25;;;;;;;10.55;3.15;;;;;;;;;;5073788;28;20075;-85
2022/10/29 10:40:04;;;;;;;16.58;3.17;;;;;;;;;;5072693;28;20051;-86
2022/10/29 10:42:35;;;;;;;14.02;3.10;;;;;;;;;;5070272;28;20136;-86
2022/10/29 10:45:17;;;;;;;13.30;3.35;;;;;;;;;;5053166;28;20044;-85
2022/10/29 10:47:50;;;;;;;15.70;3.60;;;;;;;;;;5062388;28;20052;-85
2022/10/29 10:50:21;;;;;;;17.83;2.92;;;;;;;;;;5057777;28;20048;-85
2022/10/29 10:52:49;;;;;;;10.27;3.30;;;;;;;;;;5070361;28;20489;-86
2022/10/29 10:55:21;;;;;;;12.18;3.58;;;;;;;;;;5072514;28;20052;-86
2022/10/29 10:57:54;;;;;;;13.47;3.10;;;;;;;;;;5072475;28;20072;-84
2022/10/29 11:00:22;;;;;;;11.70;2.92;;;;;;;;;;5072754;28;20332;-86
2022/10/29 11:02:55;;;;;;;10.23;3.35;;;;;;;;;;5054439;28;20049;-86
2022/10/29 11:05:31;;;;;;;15.25;3.30;;;;;;;;;;5053205;28;20057;-85
2022/10/29 11:08:04;;;;;;;13.65;3.15;;;;;;;;;;5052134;28;20052;-86
2022/10/29 11:10:35;;;;;;;11.32;2.83;;;;;;;;;;5052319;28;20051;-85
2022/10/29 11:13:06;;;;;;;8.52;3.08;;;;;;;;;;5070676;28;20052;-85
2022/10/29 11:15:43;;;;;;;9.65;2.72;;;;;;;;;;5072174;28;20060;-86
2022/10/29 11:18:14;;;;;;;12.43;3.00;;;;;;;;;;5072152;28;20055;-87
2022/10/29 11:20:44;;;;;;;8.25;3.25;;;;;;;;;;5071860;28;20495;-83
2022/10/29 11:23:11;;;;;;;10.63;2.88;;;;;;;;;;5072781;28;20564;-87
2022/10/29 11:25:48;;;;;;;6.10;2.90;;;;;;;;;;5072000;28;20404;-84
2022/10/29 11:28:22;;;;;;;14.55;3.10;;;;;;;;;;5072320;28;20044;-85
2022/10/29 11:31:04;;;;;;;8.75;3.05;;;;;;;;;;5072124;28;20051;-86
2022/10/29 11:33:50;;;;;;;13.93;3.38;;;;;;;;;;5052373;28;20068;-87
2022/10/29 11:36:22;;;;;;;9.07;3.03;;;;;;;;;;5051653;28;20539;-85
2022/10/29 11:39:12;;;;;;;13.63;3.25;;;;;;;;;;5051849;28;20045;-86
2022/10/29 11:41:40;;;;;;;9.02;2.60;;;;;;;;;;5047146;28;20060;-86
2022/10/29 11:44:15;;;;;;;7.18;2.42;;;;;;;;;;5052446;28;20056;-87
2022/10/29 11:46:52;;;;;;;14.60;3.17;;;;;;;;;;5052270;28;20386;-86
2022/10/29 11:49:25;;;;;;;14.02;3.50;;;;;;;;;;5052392;28;20045;-87
2022/10/29 11:52:11;;;;;;;10.25;2.83;;;;;;;;;;5052193;28;20416;-86
2022/10/29 11:54:39;;;;;;;10.68;2.95;;;;;;;;;;5052164;28;20063;-85
2022/10/29 11:57:09;;;;;;;10.32;3.08;;;;;;;;;;5053008;28;20048;-86
2022/10/29 11:59:45;;;;;;;18.42;3.47;;;;;;;;;;5052018;28;20057;-86
2022/10/29 12:02:31;;;;;;;16.42;3.92;;;;;;;;;;5051576;28;20083;-86
2022/10/29 12:05:01;;;;;;;12.30;2.80;;;;;;;;;;5077721;28;20059;-87
2022/10/29 12:07:44;;;;;;;6.63;3.15;;;;;;;;;;5072780;28;20049;-86
2022/10/29 12:10:26;;;;;;;12.50;3.00;;;;;;;;;;5071879;28;20044;-87
2022/10/29 12:13:02;;;;;;;12.82;3.53;;;;;;;;;;5057690;28;20067;-85
2022/10/29 12:15:34;;;;;;;11.13;2.92;;;;;;;;;;5052153;28;20064;-85
2022/10/29 12:18:04;;;;;;;13.75;3.00;;;;;;;;;;5066245;28;20050;-85
2022/10/29 12:20:31;;;;;;;14.57;3.33;;;;;;;;;;5072851;28;20477;-84
2022/10/29 12:23:02;;;;;;;14.73;3.45;;;;;;;;;;5071134;28;20415;-86
2022/10/29 12:25:55;;;;;;;9.50;3.03;;;;;;;;;;5071789;28;20065;-85
2022/10/29 12:28:35;;;;;;;11.73;3.17;;;;;;;;;;5054161;28;20140;-85
2022/10/29 12:31:07;;;;;;;10.65;3.22;;;;;;;;;;5051792;28;20049;-86
2022/10/29 12:33:39;;;;;;;17.73;3.60;;;;;;;;;;5052431;28;20520;-85
2022/10/29 12:36:09;;;;;;;15.80;3.27;;;;;;;;;;5051684;28;20404;-86
2022/10/29 12:38:41;;;;;;;12.75;3.25;;;;;;;;;;5051940;28;20078;-85
2022/10/29 12:41:25;;;;;;;10.82;3.28;;;;;;;;;;5055165;28;20045;-86
2022/10/29 12:43:59;;;;;;;15.60;3.13;;;;;;;;;;5055046;28;20049;-85
2022/10/29 12:46:34;;;;;;;19.58;3.70;;;;;;;;;;5055320;28;20064;-85
2022/10/29 12:49:02;;;;;;;13.43;2.60;;;;;;;;;;5054984;28;20061;-84
2022/10/29 12:51:42;;;;;;;9.70;3.00;;;;;;;;;;5055087;28;20070;-83
2022/10/29 12:54:28;;;;;;;18.85;3.78;;;;;;;;;;5074914;28;20052;-86
2022/10/29 12:57:02;;;;;;;12.52;3.15;;;;;;;;;;5071326;28;20053;-87
2022/10/29 12:59:31;;;;;;;15.38;3.50;;;;;;;;;;5054717;28;20056;-85
2022/10/29 13:02:17;;;;;;;11.18;3.15;;;;;;;;;;5054372;28;20052;-83
2022/10/29 13:05:05;;;;;;;9.32;3.10;;;;;;;;;;5066669;28;20056;-86
2022/10/29 13:07:33;;;;;;;11.07;2.88;;;;;;;;;;5066468;28;20057;-85
2022/10/29 13:10:19;;;;;;;10.25;3.10;;;;;;;;;;5054208;28;20063;-85
2022/10/29 13:12:53;;;;;;;23.27;3.72;;;;;;;;;;5064499;28;20056;-86
2022/10/29 13:15:27;;;;;;;10.07;3.33;;;;;;;;;;5074234;28;20048;-87
2022/10/29 13:17:55;;;;;;;15.00;3.28;;;;;;;;;;5073092;28;20044;-86
2022/10/29 13:20:38;;;;;;;18.10;3.45;;;;;;;;;;5075118;28;20048;-85
2022/10/29 13:23:36;;;;;;;16.60;3.05;;;;;;;;;;5067839;28;20060;-85
2022/10/29 13:26:07;;;;;;;26.17;5.22;;;;;;;;;;5051109;28;20059;-86
2022/10/29 13:28:37;;;;;;;15.60;3.20;;;;;;;;;;5070283;28;20500;-86
2022/10/29 13:31:04;;;;;;;16.92;3.22;;;;;;;;;;5075844;28;20087;-87
2022/10/29 13:33:31;;;;;;;16.90;3.10;;;;;;;;;;5059307;28;20045;-86
2022/10/29 13:36:05;;;;;;;10.95;2.95;;;;;;;;;;5053776;28;20485;-87
2022/10/29 13:38:50;;;;;;;13.20;3.00;;;;;;;;;;5054186;28;20056;-85
2022/10/29 13:41:41;;;;;;;14.98;2.97;;;;;;;;;;5052850;28;20049;-88
2022/10/29 13:44:09;;;;;;;15.98;3.25;;;;;;;;;;5051745;28;20049;-85
2022/10/29 13:46:53;;;;;;;17.35;3.80;;;;;;;;;;5051960;28;20045;-86
2022/10/29 13:49:25;;;;;;;13.93;2.85;;;;;;;;;;5050866;28;20485;-86
2022/10/29 13:52:13;;;;;;;15.55;3.80;;;;;;;;;;5050261;28;20041;-85
2022/10/29 13:54:50;;;;;;;12.32;2.78;;;;;;;;;;5070258;28;20309;-86
2022/10/29 13:57:25;;;;;;;9.07;3.05;;;;;;;;;;5068625;28;20421;-86
2022/10/29 14:00:03;;;;;;;19.48;3.80;;;;;;;;;;5051851;28;20409;-86
2022/10/29 14:02:38;;;;;;;12.02;3.08;;;;;;;;;;5056833;28;20500;-86
2022/10/29 14:05:12;;;;;;;12.05;3.00;;;;;;;;;;5060882;28;20464;-84
2022/10/29 14:07:45;;;;;;;15.05;3.00;;;;;;;;;;5059410;28;20048;-85
2022/10/29 14:10:17;;;;;;;11.17;3.30;;;;;;;;;;5073515;28;20053;-84
2022/10/29 14:12:49;;;;;;;11.57;3.50;;;;;;;;;;5070251;28;20359;-85
2022/10/29 14:15:17;;;;;;;14.70;2.92;;;;;;;;;;5073064;28;20063;-85
2022/10/29 14:17:44;;;;;;;15.00;3.28;;;;;;;;;;5072691;28;20045;-86
2022/10/29 14:20:25;;;;;;;17.15;3.25;;;;;;;;;;5073503;28;20420;-84
2022/10/29 14:22:53;;;;;;;10.95;3.00;;;;;;;;;;5066036;28;20482;-85
2022/10/29 14:25:30;;;;;;;12.65;3.03;;;;;;;;;;5053044;28;20123;-86
2022/10/29 14:28:08;;;;;;;19.63;3.03;;;;;;;;;;5053145;28;20060;-86
2022/10/29 14:30:35;;;;;;;7.03;3.08;;;;;;;;;;5053200;28;20098;-85
2022/10/29 14:33:16;;;;;;;8.65;2.63;;;;;;;;;;5060839;28;20041;-86
2022/10/29 14:35:44;;;;;;;18.05;2.63;;;;;;;;;;5073028;28;20052;-85
2022/10/29 14:38:12;;;;;;;14.38;2.58;;;;;;;;;;5072074;28;20056;-85
2022/10/29 14:40:40;;;;;;;10.48;2.97;;;;;;;;;;5058034;28;20511;-85
2022/10/29 14:43:17;;;;;;;16.00;2.95;;;;;;;;;;5059116;28;20484;-85
2022/10/29 14:45:44;;;;;;;14.73;3.08;;;;;;;;;;5072446;28;20489;-84
2022/10/29 14:48:15;;;;;;;12.32;3.45;;;;;;;;;;5072548;28;20045;-86
2022/10/29 14:50:55;;;;;;;18.13;3.75;;;;;;;;;;5066170;28;20051;-86
2022/10/29 14:53:28;;;;;;;12.77;3.03;;;;;;;;;;5062576;28;20049;-86
2022/10/29 14:55:55;;;;;;;;;;;;;;;;;;5061845;28;20062;-87